Time;durP1;ratioP1;P1;durP2;ratioP2;P2;SDS_P1;SDS_P2;PMS_P1;PMS_P2;Temp;Humidity;BMP_temperature;BMP_pressure;BME280_temperature;BME280_humidity;BME280_pressure;Samples;Min_cycle;Max_cycle;Signal;HPM_P1;HPM_P2
2021/07/28 00:01:52;;;;;;;6.18;3.25;;;;;;;16.69;67.43;99068.50;6101634;23;20025;-74
2021/07/28 00:04:18;;;;;;;5.45;3.63;;;;;;;16.71;67.25;99068.34;6101746;23;20445;-76
2021/07/28 00:06:44;;;;;;;4.45;3.00;;;;;;;16.81;67.12;99073.59;6125941;23;20102;-75
2021/07/28 00:09:10;;;;;;;5.03;3.30;;;;;;;16.90;66.69;99061.78;6152567;22;20025;-74
2021/07/28 00:11:36;;;;;;;4.25;3.50;;;;;;;17.04;66.41;99066.50;6151753;23;20538;-74
2021/07/28 00:14:02;;;;;;;3.65;3.35;;;;;;;17.05;66.11;99070.88;6126309;23;20487;-73
2021/07/28 00:16:28;;;;;;;3.88;2.90;;;;;;;17.02;66.47;99068.53;6125994;23;20111;-72
2021/07/28 00:24:13;;;;;;;3.72;3.28;;;;;;;17.05;65.89;99080.84;6130426;23;20526;-73
2021/07/28 00:26:38;;;;;;;6.97;3.53;;;;;;;17.07;66.16;99071.53;6125537;23;20100;-73
2021/07/28 00:29:04;;;;;;;4.20;3.25;;;;;;;17.00;66.29;99073.25;6151877;23;20071;-72
2021/07/28 00:31:30;;;;;;;10.13;3.42;;;;;;;16.88;66.63;99071.91;6151650;23;20022;-73
2021/07/28 00:33:56;;;;;;;5.13;3.30;;;;;;;16.85;66.49;99073.09;6151722;23;20448;-74
2021/07/28 00:36:22;;;;;;;4.97;3.33;;;;;;;16.94;66.43;99076.63;6077292;23;20096;-74
2021/07/28 00:38:48;;;;;;;6.15;3.47;;;;;;;16.96;66.21;99072.75;6101559;23;20053;-73
2021/07/28 00:41:14;;;;;;;4.20;3.05;;;;;;;16.90;66.32;99078.81;6125770;23;20448;-74
2021/07/28 00:43:40;;;;;;;3.92;3.50;;;;;;;16.83;66.49;99079.66;6152619;23;20028;-73
2021/07/28 00:46:06;;;;;;;8.63;3.22;;;;;;;16.77;66.56;99078.47;6125823;23;20060;-73
2021/07/28 00:48:33;;;;;;;5.75;3.25;;;;;;;16.70;66.50;99070.19;6125597;23;20451;-73
2021/07/28 00:50:59;;;;;;;6.88;3.35;;;;;;;16.66;66.76;99054.50;6125884;23;20021;-74
2021/07/28 00:53:25;;;;;;;5.07;3.30;;;;;;;16.77;66.60;99064.97;6101251;23;20024;-75
2021/07/28 00:55:52;;;;;;;6.53;3.42;;;;;;;16.74;66.41;99058.09;6151295;23;20021;-74
2021/07/28 00:58:32;;;;;;;;;;;;;;;16.77;66.27;99064.13;6103982;23;20137;-74
2021/07/28 01:00:59;;;;;;;3.53;3.20;;;;;;;16.79;66.32;99067.53;6149733;23;19934;-74
2021/07/28 01:03:25;;;;;;;11.07;4.05;;;;;;;16.80;66.17;99063.81;6077625;23;20017;-74
2021/07/28 01:05:51;;;;;;;4.82;3.28;;;;;;;16.84;65.91;99066.00;6101398;23;20071;-74
2021/07/28 01:08:16;;;;;;;4.50;3.65;;;;;;;16.79;65.83;99062.13;6125738;23;20052;-73
2021/07/28 01:10:45;;;;;;;6.75;3.42;;;;;;;16.79;66.08;99070.22;6101431;23;20028;-74
2021/07/28 01:13:10;;;;;;;5.45;3.25;;;;;;;16.85;65.97;99074.94;6151489;23;20071;-73
2021/07/28 01:18:04;;;;;;;3.50;3.20;;;;;;;16.80;65.75;99071.91;6151791;23;20365;-74
2021/07/28 01:20:35;;;;;;;3.47;3.17;;;;;;;16.88;65.53;99074.59;6078066;23;20050;-73
2021/07/28 01:23:07;;;;;;;3.80;3.30;;;;;;;16.70;65.95;99077.47;6053397;23;20017;-73
2021/07/28 01:25:33;;;;;;;7.72;3.10;;;;;;;16.57;66.47;99079.81;6072592;23;20417;-74
2021/07/28 01:28:01;;;;;;;6.05;3.42;;;;;;;16.63;66.22;99074.59;6096528;23;20124;-73
2021/07/28 01:30:28;;;;;;;9.45;3.70;;;;;;;16.59;66.27;99084.03;6122903;23;20054;-74
2021/07/28 01:32:53;;;;;;;5.28;3.50;;;;;;;16.51;66.80;99081.28;6096330;23;20026;-73
2021/07/28 01:35:19;;;;;;;7.82;3.55;;;;;;;16.50;66.30;99080.47;6145027;23;20072;-74
2021/07/28 01:37:46;;;;;;;4.18;3.17;;;;;;;16.42;67.16;99082.31;6120965;23;20129;-75
2021/07/28 01:40:13;;;;;;;6.00;3.60;;;;;;;16.41;66.73;99081.47;6120594;23;20097;-74
2021/07/28 01:42:43;;;;;;;5.20;3.55;;;;;;;16.39;66.96;99071.84;6121984;23;20113;-74
2021/07/28 01:45:10;;;;;;;6.13;3.50;;;;;;;16.41;66.96;99069.84;6072592;23;20449;-74
2021/07/28 01:47:36;;;;;;;7.88;3.90;;;;;;;16.37;66.98;99079.28;6096246;23;20400;-73
2021/07/28 01:50:02;;;;;;;4.82;3.50;;;;;;;16.45;66.37;99071.19;6120703;23;20018;-75
2021/07/28 01:52:28;;;;;;;4.63;4.03;;;;;;;16.50;66.78;99074.22;6120435;23;20026;-74
2021/07/28 01:54:54;;;;;;;3.55;3.20;;;;;;;16.46;66.40;99068.31;6120480;23;20080;-74
2021/07/28 01:57:20;;;;;;;6.72;3.53;;;;;;;16.53;66.27;99073.88;6072287;23;20018;-74
2021/07/28 01:59:46;;;;;;;4.72;3.38;;;;;;;16.71;66.12;99073.75;6120202;23;20432;-73
2021/07/28 02:02:12;;;;;;;5.25;3.55;;;;;;;16.83;65.61;99075.13;6096041;23;20036;-73
2021/07/28 02:04:38;;;;;;;4.82;3.53;;;;;;;17.01;65.31;99083.03;6120102;23;20357;-74
2021/07/28 02:07:04;;;;;;;4.32;3.22;;;;;;;17.15;64.65;99076.09;6096152;23;20025;-74
2021/07/28 02:09:30;;;;;;;7.60;3.22;;;;;;;17.35;64.32;99072.00;6120035;23;20026;-74
2021/07/28 02:11:56;;;;;;;9.13;3.72;;;;;;;17.47;63.96;99064.38;6120124;23;20097;-74
2021/07/28 02:14:22;;;;;;;9.48;3.78;;;;;;;17.57;63.68;99078.53;6072305;23;20022;-74
2021/07/28 02:16:48;;;;;;;11.70;3.95;;;;;;;17.46;63.35;99076.19;6096163;23;20021;-76
2021/07/28 02:19:13;;;;;;;6.68;3.40;;;;;;;17.43;63.92;99071.97;6120444;23;20029;-74
2021/07/28 02:21:39;;;;;;;10.63;3.40;;;;;;;17.62;63.59;99080.72;6121528;23;20084;-73
2021/07/28 02:24:05;;;;;;;12.30;3.90;;;;;;;17.64;63.62;99076.81;6144528;23;20052;-74
2021/07/28 02:26:31;;;;;;;8.65;3.17;;;;;;;17.77;63.11;99072.75;6139552;23;20018;-75
2021/07/28 02:28:57;;;;;;;7.72;3.88;;;;;;;17.78;63.04;99085.22;6125173;23;20017;-74
2021/07/28 02:31:23;;;;;;;5.20;3.47;;;;;;;17.67;63.53;99084.56;6101204;23;20334;-75
2021/07/28 02:33:48;;;;;;;4.32;3.53;;;;;;;17.66;63.73;99091.00;6100302;23;20021;-73
2021/07/28 02:36:14;;;;;;;10.95;3.35;;;;;;;17.51;64.69;99095.44;6125220;23;20349;-73
2021/07/28 02:38:40;;;;;;;8.40;3.13;;;;;;;17.32;65.21;99095.81;6124724;23;20028;-75
2021/07/28 02:41:06;;;;;;;6.18;3.10;;;;;;;17.21;65.31;99103.25;6149483;23;20035;-75
2021/07/28 02:43:32;;;;;;;5.57;3.22;;;;;;;17.38;65.17;99103.25;6100817;23;20095;-75
2021/07/28 02:45:58;;;;;;;10.98;3.50;;;;;;;17.67;64.42;99103.47;6053451;23;20041;-75
2021/07/28 02:48:24;;;;;;;5.30;3.50;;;;;;;17.74;63.81;99103.63;6076922;23;20024;-76
2021/07/28 02:50:50;;;;;;;5.95;3.75;;;;;;;17.68;64.19;99096.25;6100836;23;20360;-75
2021/07/28 02:53:16;;;;;;;17.70;3.85;;;;;;;17.67;64.46;99089.97;6124617;23;20460;-74
2021/07/28 02:55:41;;;;;;;4.70;3.15;;;;;;;17.66;64.33;99104.50;6076649;23;20472;-74
2021/07/28 02:58:07;;;;;;;8.63;3.50;;;;;;;17.60;64.49;99102.50;6150524;23;20064;-74
2021/07/28 03:00:34;;;;;;;9.95;3.53;;;;;;;17.62;64.46;99105.88;6100308;23;20079;-74
2021/07/28 03:03:00;;;;;;;6.72;3.10;;;;;;;17.67;64.23;99100.78;6100949;23;20018;-74
2021/07/28 03:05:26;;;;;;;4.18;2.85;;;;;;;17.65;63.94;99108.22;6100590;23;20032;-75
2021/07/28 03:07:51;;;;;;;5.75;3.65;;;;;;;17.70;63.91;99105.00;6150531;23;20021;-76
2021/07/28 03:10:17;;;;;;;9.18;3.17;;;;;;;17.76;63.59;99103.50;6125032;23;20021;-74
2021/07/28 03:12:43;;;;;;;2.97;2.78;;;;;;;17.59;63.75;99097.25;6150625;22;20018;-74
2021/07/28 03:15:09;;;;;;;6.40;2.88;;;;;;;17.70;63.40;99110.41;6148721;23;20051;-73
2021/07/28 03:17:35;;;;;;;4.95;3.22;;;;;;;17.77;63.21;99102.47;6202352;23;20021;-78
2021/07/28 03:20:01;;;;;;;6.90;2.83;;;;;;;17.90;62.71;99105.47;6124345;23;20408;-76
2021/07/28 03:22:27;;;;;;;5.63;3.03;;;;;;;18.01;62.42;99096.94;6150468;23;20096;-76
2021/07/28 03:24:53;;;;;;;3.97;2.70;;;;;;;18.08;62.28;99102.50;6151221;23;20464;-75
2021/07/28 03:27:19;;;;;;;6.95;2.72;;;;;;;18.26;61.46;99111.22;6101293;23;20043;-75
2021/07/28 03:29:45;;;;;;;4.45;2.97;;;;;;;18.39;61.17;99105.19;6150083;23;20071;-75
2021/07/28 03:32:11;;;;;;;6.07;2.50;;;;;;;18.52;60.61;99094.63;6151646;23;20439;-75
2021/07/28 03:34:38;;;;;;;5.35;2.53;;;;;;;18.76;59.79;99103.63;6053892;23;20017;-75
2021/07/28 03:37:04;;;;;;;5.03;2.33;;;;;;;18.84;59.42;99096.31;6151870;23;20021;-74
2021/07/28 03:39:30;;;;;;;3.70;2.50;;;;;;;19.07;58.55;99100.81;6150761;23;20020;-78
2021/07/28 03:41:56;;;;;;;3.47;2.70;;;;;;;19.21;57.82;99102.72;6077701;23;20415;-75
2021/07/28 03:44:22;;;;;;;6.18;2.90;;;;;;;19.23;56.89;99106.09;6151538;23;20045;-76
2021/07/28 03:46:48;;;;;;;4.70;2.28;;;;;;;19.15;57.24;99108.91;6125288;23;20025;-75
2021/07/28 03:49:13;;;;;;;3.88;2.60;;;;;;;19.13;57.03;99106.34;6125416;23;20025;-76
2021/07/28 03:51:39;;;;;;;10.52;2.78;;;;;;;19.18;57.13;99116.63;6151691;23;20101;-76
2021/07/28 03:54:05;;;;;;;7.88;3.03;;;;;;;19.30;56.92;99114.34;6126170;23;20101;-76
2021/07/28 03:56:31;;;;;;;5.65;2.83;;;;;;;19.41;56.40;99122.03;6077617;23;20028;-77
2021/07/28 03:58:57;;;;;;;7.40;2.97;;;;;;;19.52;55.92;99124.28;6077960;23;20384;-77
2021/07/28 04:01:23;;;;;;;7.15;3.03;;;;;;;19.64;55.64;99116.56;6151874;23;20119;-77
2021/07/28 04:03:50;;;;;;;4.32;2.50;;;;;;;19.86;54.84;99122.94;6101809;23;20025;-76
2021/07/28 04:06:16;;;;;;;2.95;2.28;;;;;;;20.03;54.52;99116.25;6151508;23;20049;-78
2021/07/28 04:08:42;;;;;;;6.03;2.22;;;;;;;19.99;53.09;99131.22;6125772;23;20344;-77
2021/07/28 04:11:07;;;;;;;7.50;2.40;;;;;;;19.98;53.33;99128.72;6150792;23;20353;-77
2021/07/28 04:13:33;;;;;;;3.33;2.30;;;;;;;19.99;53.67;99125.81;6125676;23;20026;-77
2021/07/28 04:15:59;;;;;;;8.65;2.30;;;;;;;19.94;52.94;99125.53;6150439;23;20047;-76
2021/07/28 04:18:25;;;;;;;5.72;2.45;;;;;;;19.97;53.06;99133.31;6204148;23;20062;-76
2021/07/28 04:20:51;;;;;;;5.80;2.90;;;;;;;20.04;52.49;99130.66;6077806;23;20056;-75
2021/07/28 04:23:17;;;;;;;2.03;1.75;;;;;;;20.02;51.05;99120.00;6151653;23;20033;-73
2021/07/28 04:25:43;;;;;;;7.88;2.08;;;;;;;20.30;51.88;99127.44;6093083;23;20401;-77
2021/07/28 04:28:09;;;;;;;2.40;2.20;;;;;;;20.37;50.87;99122.94;6096132;23;20167;-77
2021/07/28 04:30:35;;;;;;;3.72;2.20;;;;;;;20.36;50.29;99129.41;6072428;23;20045;-74
2021/07/28 04:33:01;;;;;;;3.67;2.05;;;;;;;20.29;50.16;99133.91;6121967;23;20075;-74
2021/07/28 04:35:27;;;;;;;10.75;2.00;;;;;;;20.22;49.19;99119.41;6144814;23;20018;-75
2021/07/28 04:37:53;;;;;;;2.83;2.22;;;;;;;20.31;48.74;99123.69;6048646;23;20021;-75
2021/07/28 04:40:19;;;;;;;5.82;1.88;;;;;;;20.28;48.59;99134.94;6049097;23;20025;-74
2021/07/28 04:42:45;;;;;;;5.43;2.30;;;;;;;20.50;48.95;99128.56;6122336;23;20021;-74
2021/07/28 04:45:11;;;;;;;6.38;2.10;;;;;;;20.57;48.05;99134.91;6122156;23;20311;-74
2021/07/28 04:47:37;;;;;;;2.17;1.80;;;;;;;20.64;48.06;99140.38;6122937;23;20018;-74
2021/07/28 04:50:03;;;;;;;1.90;1.80;;;;;;;20.70;46.75;99142.34;6072166;23;20344;-75
2021/07/28 04:52:29;;;;;;;5.18;1.70;;;;;;;20.68;46.78;99136.25;6121773;23;20338;-78
2021/07/28 04:54:55;;;;;;;4.53;2.03;;;;;;;20.68;46.41;99143.56;6048383;23;20025;-74
2021/07/28 04:57:21;;;;;;;3.08;1.90;;;;;;;20.58;46.77;99143.88;6121558;23;20342;-77
2021/07/28 04:59:47;;;;;;;4.47;1.80;;;;;;;20.78;46.74;99153.06;6096628;23;20022;-75
2021/07/28 05:02:13;;;;;;;4.32;1.95;;;;;;;20.76;46.10;99138.00;6121990;23;20500;-74
2021/07/28 05:04:39;;;;;;;4.82;1.90;;;;;;;20.73;45.47;99141.13;6120527;23;20476;-73
2021/07/28 05:07:05;;;;;;;6.78;2.00;;;;;;;20.93;45.64;99134.00;6121776;23;20030;-74
2021/07/28 05:09:31;;;;;;;2.47;1.60;;;;;;;21.07;44.30;99143.97;6095743;23;20029;-76
2021/07/28 05:11:57;;;;;;;3.85;1.70;;;;;;;20.94;44.50;99140.28;6118040;23;20017;-78
2021/07/28 05:14:23;;;;;;;5.55;1.60;;;;;;;21.03;43.91;99150.00;6196427;23;20021;-75
2021/07/28 05:16:49;;;;;;;3.58;1.80;;;;;;;20.93;44.18;99142.16;6095117;23;20402;-76
2021/07/28 05:19:15;;;;;;;3.38;1.58;;;;;;;20.98;44.38;99142.41;6120524;23;20018;-76
2021/07/28 05:21:41;;;;;;;4.40;1.80;;;;;;;20.87;44.33;99140.19;6095332;23;20044;-76
2021/07/28 05:24:07;;;;;;;5.68;2.00;;;;;;;20.91;44.69;99149.66;6119877;23;20441;-75
2021/07/28 05:26:33;;;;;;;2.80;1.58;;;;;;;21.04;43.79;99151.66;6120006;22;20018;-74
2021/07/28 05:28:59;;;;;;;2.78;2.03;;;;;;;20.87;42.86;99142.91;6122385;23;20043;-74
2021/07/28 05:31:25;;;;;;;11.48;2.30;;;;;;;21.00;44.33;99136.78;6096430;23;20026;-74
2021/07/28 05:33:50;;;;;;;3.10;1.80;;;;;;;21.20;43.11;99148.66;6121972;23;20076;-73
2021/07/28 05:36:16;;;;;;;7.80;1.85;;;;;;;21.19;42.27;99132.56;6121276;23;20022;-75
2021/07/28 05:38:43;;;;;;;3.50;1.45;;;;;;;21.07;41.47;99135.81;6121740;23;20398;-71
2021/07/28 05:41:09;;;;;;;3.03;1.30;;;;;;;21.03;39.41;99153.53;6120193;23;20080;-73
2021/07/28 05:43:35;;;;;;;2.50;1.60;;;;;;;21.04;40.67;99135.34;6048474;23;20021;-74
2021/07/28 05:46:01;;;;;;;1.83;1.50;;;;;;;21.38;41.10;99142.78;6120406;23;20018;-74
2021/07/28 05:48:31;;;;;;;2.60;2.00;;;;;;;21.42;40.77;99141.34;6071769;23;20029;-74
2021/07/28 05:51:00;;;;;;;2.75;1.73;;;;;;;21.54;40.61;99134.31;6074410;23;20029;-74
2021/07/28 05:53:26;;;;;;;2.45;1.40;;;;;;;21.72;40.47;99141.16;6122129;23;20076;-74
2021/07/28 05:55:53;;;;;;;4.90;1.75;;;;;;;21.81;40.97;99137.22;6199103;23;20030;-76
2021/07/28 05:58:21;;;;;;;2.53;1.60;;;;;;;21.88;41.79;99135.38;6096593;23;20026;-77
2021/07/28 06:00:48;;;;;;;1.88;1.73;;;;;;;21.63;42.55;99136.91;6120063;23;20045;-75
2021/07/28 06:03:14;;;;;;;2.35;1.55;;;;;;;21.71;42.39;99126.72;6144639;23;20104;-77
2021/07/28 06:05:40;;;;;;;5.85;1.60;;;;;;;21.77;41.55;99133.22;6096334;23;20014;-77
2021/07/28 06:08:06;;;;;;;2.65;1.60;;;;;;;21.69;41.01;99136.09;6120102;23;20404;-77
2021/07/28 06:10:32;;;;;;;3.20;1.42;;;;;;;22.02;40.49;99123.53;6096316;23;20101;-77
2021/07/28 06:12:59;;;;;;;1.80;1.70;;;;;;;22.27;39.99;99125.78;6096056;23;20092;-76
2021/07/28 06:15:25;;;;;;;5.95;2.38;;;;;;;22.31;39.89;99143.38;6073141;23;20018;-79
2021/07/28 06:18:14;;;;;;;1.58;1.48;;;;;;;22.24;38.88;99115.28;6121818;23;20025;-76
2021/07/28 06:20:40;;;;;;;4.45;2.05;;;;;;;22.25;40.20;99119.66;6122233;23;20064;-77
2021/07/28 06:23:06;;;;;;;2.22;1.40;;;;;;;21.97;40.01;99136.91;6173204;23;20149;-77
2021/07/28 06:25:32;;;;;;;1.38;1.30;;;;;;;21.61;39.38;99158.00;6201506;23;20381;-77
2021/07/28 06:27:58;;;;;;;3.42;1.30;;;;;;;21.33;39.21;99129.78;6100542;23;20021;-77
2021/07/28 06:30:24;;;;;;;3.22;1.45;;;;;;;21.53;39.49;99112.78;6152028;23;20026;-78
2021/07/28 06:32:50;;;;;;;1.85;1.42;;;;;;;22.12;38.62;99116.88;6077008;23;20406;-77
2021/07/28 06:35:16;;;;;;;2.67;1.50;;;;;;;22.13;37.51;99126.72;6077170;23;20100;-78
2021/07/28 06:37:42;;;;;;;5.00;1.40;;;;;;;21.81;37.32;99132.63;6125582;23;20480;-77
2021/07/28 06:40:08;;;;;;;2.55;1.35;;;;;;;21.56;37.25;99131.41;6151224;23;20017;-77
2021/07/28 06:42:34;;;;;;;2.65;1.45;;;;;;;21.62;37.33;99127.03;6149459;23;20025;-77
2021/07/28 06:45:00;;;;;;;4.32;1.27;;;;;;;21.79;36.68;99121.09;6125935;23;20127;-77
2021/07/28 06:47:26;;;;;;;2.17;1.42;;;;;;;21.85;37.28;99124.88;6125296;23;20025;-78
2021/07/28 06:49:52;;;;;;;10.27;1.70;;;;;;;21.90;36.75;99129.75;6125190;23;20437;-77
2021/07/28 06:52:18;;;;;;;6.78;1.70;;;;;;;21.79;36.98;99131.16;6253619;22;20021;-77
2021/07/28 06:54:47;;;;;;;3.75;1.30;;;;;;;22.01;37.15;99121.00;6054577;23;20018;-80
2021/07/28 06:57:13;;;;;;;2.35;1.40;;;;;;;21.92;36.87;99114.88;6124921;23;20470;-79
2021/07/28 06:59:38;;;;;;;2.05;1.50;;;;;;;21.94;37.34;99115.53;6124829;23;20532;-78
2021/07/28 07:02:04;;;;;;;6.68;1.40;;;;;;;22.28;36.98;99122.84;6077199;23;20025;-78
2021/07/28 07:04:30;;;;;;;9.48;1.50;;;;;;;22.44;35.61;99116.19;6124966;23;20075;-76
2021/07/28 07:06:56;;;;;;;2.00;1.20;;;;;;;22.48;36.15;99128.34;6100702;23;20029;-77
2021/07/28 07:09:23;;;;;;;3.40;1.40;;;;;;;22.45;36.12;99128.75;6053198;23;20021;-78
2021/07/28 07:11:48;;;;;;;2.33;1.17;;;;;;;22.30;35.94;99119.88;6150829;23;20017;-79
2021/07/28 07:14:14;;;;;;;1.23;1.10;;;;;;;22.23;36.13;99124.50;6101090;23;20028;-77
2021/07/28 07:16:40;;;;;;;5.55;1.30;;;;;;;22.12;36.16;99123.16;6151163;23;20071;-76
2021/07/28 07:19:06;;;;;;;1.45;1.15;;;;;;;22.22;35.66;99129.06;6150996;22;20021;-78
2021/07/28 07:21:32;;;;;;;2.08;1.20;;;;;;;22.21;35.63;99115.69;6124938;23;20018;-77
2021/07/28 07:23:58;;;;;;;1.45;1.30;;;;;;;22.19;35.36;99106.88;6150605;23;20021;-78
2021/07/28 07:26:24;;;;;;;5.50;1.00;;;;;;;22.18;35.01;99099.75;6124442;23;20116;-78
2021/07/28 07:28:53;;;;;;;1.13;1.08;;;;;;;22.04;35.27;99094.22;6100313;23;20350;-78
2021/07/28 07:31:19;;;;;;;;;;;;;;;22.30;34.08;99100.84;6100998;23;20448;-78
2021/07/28 07:33:45;;;;;;;10.05;2.13;;;;;;;22.40;33.15;99106.75;6100154;23;19927;-77
2021/07/28 07:36:14;;;;;;;6.22;0.80;;;;;;;22.26;32.08;99111.28;6149934;23;20391;-78
2021/07/28 07:38:40;;;;;;;5.75;0.90;;;;;;;22.27;32.15;99114.88;6228618;22;20021;-79
2021/07/28 07:41:06;;;;;;;3.38;1.42;;;;;;;22.33;32.16;99108.59;6100379;23;20018;-78
2021/07/28 07:43:33;;;;;;;2.72;1.33;;;;;;;22.31;33.39;99097.09;6076506;23;20025;-77
2021/07/28 07:45:59;;;;;;;2.63;1.08;;;;;;;22.49;33.19;99097.34;6124949;23;20022;-78
2021/07/28 07:48:26;;;;;;;0.93;0.80;;;;;;;22.46;32.99;99103.22;6100364;23;20045;-77
2021/07/28 07:50:52;;;;;;;3.78;1.33;;;;;;;22.16;32.46;99096.41;6124708;23;20067;-78
2021/07/28 07:53:18;;;;;;;3.83;1.20;;;;;;;22.37;32.54;99098.13;6100293;23;20028;-78
2021/07/28 07:55:44;;;;;;;4.28;1.70;;;;;;;22.73;32.38;99103.25;6100000;23;20045;-77
2021/07/28 07:58:10;;;;;;;3.03;1.27;;;;;;;22.69;32.09;99091.94;6100315;23;20074;-78
2021/07/28 08:00:36;;;;;;;2.78;1.10;;;;;;;22.61;31.53;99104.91;6100031;23;20018;-78
2021/07/28 08:03:02;;;;;;;1.65;1.50;;;;;;;22.83;31.83;99073.72;6100509;23;20455;-78
2021/07/28 08:05:28;;;;;;;20.63;1.35;;;;;;;23.00;31.62;99094.09;6124444;23;20026;-78
2021/07/28 08:07:54;;;;;;;2.35;1.02;;;;;;;22.86;31.87;99092.38;6076374;23;20025;-79
2021/07/28 08:10:20;;;;;;;5.55;0.90;;;;;;;23.00;31.75;99075.00;6124866;23;20109;-79
2021/07/28 08:12:49;;;;;;;3.83;1.10;;;;;;;23.15;31.19;99090.31;6152061;23;20021;-78
2021/07/28 08:15:17;;;;;;;;;;;;;;;23.23;31.31;99084.66;6127410;23;20017;-77
2021/07/28 08:17:43;;;;;;;3.05;1.00;;;;;;;23.52;30.93;99080.63;6150552;23;20247;-78
2021/07/28 08:20:10;;;;;;;3.58;1.00;;;;;;;23.63;30.61;99099.09;6101633;23;20104;-77
2021/07/28 08:22:39;;;;;;;4.47;1.40;;;;;;;23.23;29.99;99092.81;6102029;23;20100;-79
2021/07/28 08:25:05;;;;;;;4.95;1.05;;;;;;;22.77;30.04;99109.97;6053746;23;20024;-79
2021/07/28 08:27:31;;;;;;;4.32;1.20;;;;;;;22.79;30.29;99091.50;6101538;23;20033;-78
2021/07/28 08:29:58;;;;;;;7.22;1.40;;;;;;;22.92;30.86;99091.56;6078026;23;20025;-79
2021/07/28 08:32:23;;;;;;;9.48;1.30;;;;;;;23.07;30.49;99098.72;6101569;23;20053;-77
2021/07/28 08:35:09;;;;;;;2.97;1.00;;;;;;;23.00;29.76;99109.59;6129889;23;20022;-78
2021/07/28 08:37:40;;;;;;;2.45;1.15;;;;;;;22.81;30.33;99103.06;6150504;23;20021;-78
2021/07/28 08:43:20;;;;;;;6.22;1.65;;;;;;;23.47;30.54;99078.56;5967591;23;20024;-78
2021/07/28 08:45:47;;;;;;;4.20;1.60;;;;;;;23.58;30.60;99078.94;6190125;23;20074;-77
2021/07/28 08:48:17;;;;;;;1.75;1.58;;;;;;;23.48;30.64;99085.69;6078825;23;20079;-77
2021/07/28 08:50:47;;;;;;;1.38;1.10;;;;;;;23.57;30.27;99080.00;6125874;23;20020;-77
2021/07/28 08:53:13;;;;;;;1.80;0.93;;;;;;;23.90;29.63;99083.50;6101974;23;20080;-76
2021/07/28 08:55:39;;;;;;;2.25;1.17;;;;;;;24.50;28.81;99083.25;6124886;23;20147;-76
2021/07/28 08:58:09;;;;;;;6.35;1.00;;;;;;;24.71;27.97;99090.25;6149450;23;20028;-77
2021/07/28 09:00:44;;;;;;;5.22;1.20;;;;;;;24.35;27.60;99107.25;6101366;23;20062;-77
2021/07/28 09:03:11;;;;;;;2.60;0.98;;;;;;;24.22;27.34;99091.75;6125244;23;20199;-76
2021/07/28 09:05:38;;;;;;;4.88;0.90;;;;;;;24.50;27.73;99093.34;6125735;23;20018;-78
2021/07/28 09:08:05;;;;;;;7.75;1.00;;;;;;;24.36;28.21;99090.66;6124568;23;20053;-77
2021/07/28 09:10:30;;;;;;;2.33;1.10;;;;;;;23.95;29.11;99100.06;6101475;23;20108;-78
2021/07/28 09:12:56;;;;;;;3.67;0.90;;;;;;;23.72;29.80;99086.91;6077009;23;20535;-76
2021/07/28 09:15:22;;;;;;;3.13;1.00;;;;;;;23.74;29.81;99086.72;6126218;23;20391;-79
2021/07/28 09:17:50;;;;;;;11.05;1.00;;;;;;;23.58;29.74;99117.97;6101711;23;20013;-77
2021/07/28 09:20:22;;;;;;;2.83;1.00;;;;;;;23.55;29.47;99101.22;6151601;23;20013;-75
2021/07/28 09:22:48;;;;;;;0.90;0.85;;;;;;;23.55;29.48;99095.75;6125828;23;20441;-79
2021/07/28 09:25:24;;;;;;;2.90;1.00;;;;;;;23.68;29.00;99082.09;6151491;23;20025;-76
2021/07/28 09:27:51;;;;;;;2.63;0.82;;;;;;;24.21;28.88;99090.94;6104687;23;20074;-77
2021/07/28 09:30:18;;;;;;;7.53;1.30;;;;;;;24.69;28.66;99086.91;6152031;23;20083;-77
2021/07/28 09:32:59;;;;;;;3.53;1.40;;;;;;;24.88;28.01;99101.50;6151662;23;20082;-78
2021/07/28 09:35:46;;;;;;;2.53;1.30;;;;;;;24.75;29.41;99085.19;6151259;23;20041;-78
2021/07/28 09:38:26;;;;;;;9.65;1.45;;;;;;;25.06;28.12;99087.91;6151504;23;20067;-78
2021/07/28 09:41:09;;;;;;;5.00;1.48;;;;;;;24.62;28.45;99094.31;6125776;23;20021;-75
2021/07/28 09:43:43;;;;;;;9.57;1.40;;;;;;;24.39;28.46;99082.06;6104326;23;20067;-81
2021/07/28 09:46:26;;;;;;;5.35;1.30;;;;;;;24.54;28.16;99084.50;6077213;23;20021;-76
2021/07/28 09:48:52;;;;;;;3.75;1.40;;;;;;;24.81;27.75;99079.69;6177683;23;20495;-73
2021/07/28 09:51:35;;;;;;;1.27;1.17;;;;;;;25.33;27.29;99084.97;6100941;23;20337;-76
2021/07/28 09:54:05;;;;;;;2.58;0.77;;;;;;;25.37;27.77;99067.88;6054687;23;20098;-76
2021/07/28 09:56:46;;;;;;;5.70;1.40;;;;;;;25.57;28.09;99072.31;6126142;23;20017;-77
2021/07/28 09:59:12;;;;;;;4.35;1.40;;;;;;;25.89;27.90;99070.31;6101492;23;20029;-76
2021/07/28 10:01:38;;;;;;;2.30;1.38;;;;;;;26.26;27.92;99079.34;6150990;23;20033;-77
2021/07/28 10:04:24;;;;;;;2.85;1.40;;;;;;;25.87;26.55;99100.66;6149938;23;20349;-79
2021/07/28 10:06:52;;;;;;;5.57;1.20;;;;;;;25.41;26.88;99080.03;6100778;23;20021;-77
2021/07/28 10:09:35;;;;;;;4.60;1.50;;;;;;;25.63;26.44;99085.94;6124482;23;20067;-76
2021/07/28 10:12:00;;;;;;;4.07;1.10;;;;;;;26.20;26.45;99073.94;6126756;23;20047;-78
2021/07/28 10:14:26;;;;;;;5.10;1.40;;;;;;;26.73;26.33;99074.03;6150728;23;20467;-76
2021/07/28 10:16:52;;;;;;;5.50;1.20;;;;;;;27.49;26.37;99079.78;6149580;23;20128;-77
2021/07/28 10:19:18;;;;;;;3.17;1.30;;;;;;;27.99;25.57;99073.78;6150738;23;20013;-78
2021/07/28 10:21:44;;;;;;;2.47;1.05;;;;;;;28.40;24.87;99088.38;6150779;23;20030;-77
2021/07/28 10:24:12;;;;;;;1.23;1.10;;;;;;;28.35;24.41;99074.50;6123903;23;20087;-78
2021/07/28 10:26:41;;;;;;;0.98;0.98;;;;;;;28.33;24.05;99078.34;6125358;23;20035;-76
2021/07/28 10:29:08;;;;;;;2.85;1.00;;;;;;;28.32;23.72;99084.94;6124959;23;20033;-78
2021/07/28 10:31:44;;;;;;;1.85;1.02;;;;;;;28.58;23.26;99082.66;6124483;23;20843;-79
2021/07/28 10:34:24;;;;;;;2.70;1.10;;;;;;;28.39;23.53;99078.47;6149921;23;20025;-79
2021/07/28 10:37:07;;;;;;;7.45;1.27;;;;;;;28.92;23.36;99077.22;6100875;23;20021;-77
2021/07/28 10:39:51;;;;;;;2.55;1.40;;;;;;;29.20;22.97;99070.88;6125067;23;20026;-79
2021/07/28 10:42:37;;;;;;;4.65;1.40;;;;;;;29.76;22.38;99060.72;6099954;23;20021;-79
2021/07/28 10:45:09;;;;;;;1.55;1.00;;;;;;;30.18;22.00;99079.47;6160215;22;20031;-78
2021/07/28 10:47:37;;;;;;;1.63;0.93;;;;;;;30.55;21.81;99076.84;6100452;23;20118;-79
2021/07/28 10:50:21;;;;;;;1.70;1.40;;;;;;;30.87;21.10;99076.09;6124565;23;20037;-77
2021/07/28 10:52:48;;;;;;;6.22;1.20;;;;;;;30.53;21.22;99073.50;6149969;22;20322;-77
2021/07/28 10:55:18;;;;;;;3.63;1.02;;;;;;;30.64;21.60;99063.41;6077002;23;20057;-79
2021/07/28 10:57:54;;;;;;;4.43;1.02;;;;;;;30.65;21.29;99068.66;6124996;23;20029;-79
2021/07/28 11:00:35;;;;;;;1.48;1.13;;;;;;;30.33;20.97;99079.66;6124260;23;20075;-78
2021/07/28 11:03:01;;;;;;;5.13;1.55;;;;;;;30.49;20.76;99086.16;6150911;23;20437;-79
2021/07/28 11:05:31;;;;;;;5.25;1.35;;;;;;;31.05;20.81;99072.13;6124312;23;20017;-78
2021/07/28 11:08:04;;;;;;;6.93;1.17;;;;;;;29.40;21.46;99084.09;6075780;23;20040;-77
2021/07/28 11:10:36;;;;;;;4.65;1.10;;;;;;;29.36;21.40;99088.44;6124941;23;20022;-77
2021/07/28 11:13:09;;;;;;;3.30;1.10;;;;;;;28.38;22.48;99082.28;6076987;23;20021;-80
2021/07/28 11:15:36;;;;;;;1.42;0.77;;;;;;;27.86;22.41;99085.03;6052427;23;20112;-79
2021/07/28 11:18:02;;;;;;;2.08;0.90;;;;;;;27.59;22.98;99074.53;6100059;23;20021;-78
2021/07/28 11:20:32;;;;;;;2.38;0.82;;;;;;;28.06;22.70;99080.00;6124513;23;20026;-78
2021/07/28 11:23:20;;;;;;;7.93;1.20;;;;;;;28.94;22.10;99072.31;6123746;23;20022;-78
2021/07/28 11:25:47;;;;;;;2.58;1.40;;;;;;;29.77;21.59;99074.22;6178638;23;20056;-81
2021/07/28 11:28:13;;;;;;;1.67;1.10;;;;;;;29.82;20.96;99078.97;6100093;23;20072;-78
2021/07/28 11:30:40;;;;;;;1.20;1.10;;;;;;;29.73;21.33;99063.97;6100941;23;20025;-81
2021/07/28 11:33:13;;;;;;;1.25;1.00;;;;;;;30.34;21.29;99064.75;6076174;23;20014;-81
2021/07/28 11:35:46;;;;;;;0.80;0.80;;;;;;;31.28;20.64;99070.91;6075337;23;20070;-83
2021/07/28 11:38:26;;;;;;;5.65;1.80;;;;;;;31.35;20.15;99075.13;6099821;23;20451;-81
2021/07/28 11:40:54;;;;;;;1.20;0.95;;;;;;;30.84;20.98;99060.91;6125052;23;20329;-82
2021/07/28 11:43:40;;;;;;;4.03;0.90;;;;;;;31.41;20.16;99070.50;6201653;23;20356;-89
2021/07/28 11:46:15;;;;;;;3.10;1.00;;;;;;;31.43;20.25;99060.00;6150229;23;20022;-82
2021/07/28 11:48:46;;;;;;;2.75;1.10;;;;;;;32.06;19.49;99049.88;6127066;23;20071;-82